Garrison, Iowa
Current Conditions -  °F | °C
As of 5:15 AM on Sunday 21 Dec 2014 (Local Time) from KVTI Reporting Station
Haze Haze  
Wind Chill: 29°   Ceiling: 500
Heat Index: 36°   Visibility: 3mi
Dew Point: 35°   Wind: 9mph
Humidity: 96%   Direction: 160°SSE
Pressure: 30.05"   Gusts: NA
Location:  42.14°N, 92.14°W
Report Text: KVTI 211115Z AUTO 16008KT 3SM BR OVC005 02/02 A3005 RMK AO2 T00210015
Loading
Personal Weather Stations






























Interactive Weather Map New forecast layout! Learn more

10-Day Weather Forecast

Advertisements
Track Severe Weather on mobile